createdAt,value
2023-12-31T00:01:52.469Z,15.38
2023-12-31T00:04:18.775Z,15.39
2023-12-31T00:06:45.077Z,15.35
2023-12-31T00:09:11.321Z,15.33
2023-12-31T00:11:37.592Z,15.33
2023-12-31T00:14:03.851Z,15.30
2023-12-31T00:16:30.139Z,15.28
2023-12-31T00:18:56.480Z,15.25
2023-12-31T00:21:22.758Z,15.24
2023-12-31T00:23:49.204Z,15.22
2023-12-31T00:26:15.468Z,15.21
2023-12-31T00:28:41.821Z,15.19
2023-12-31T00:31:08.130Z,15.16
2023-12-31T00:33:34.598Z,15.13
2023-12-31T00:36:00.945Z,15.13
2023-12-31T00:38:27.205Z,15.11
2023-12-31T00:40:53.494Z,15.09
2023-12-31T00:43:19.770Z,15.11
2023-12-31T00:45:46.016Z,15.10
2023-12-31T00:48:12.513Z,15.05
2023-12-31T00:50:39.214Z,15.04
2023-12-31T00:53:05.674Z,15.04
2023-12-31T00:55:32.163Z,15.04
2023-12-31T00:57:58.485Z,14.99
2023-12-31T01:00:24.773Z,15.00
2023-12-31T01:02:51.061Z,14.97
2023-12-31T01:05:17.345Z,14.96
2023-12-31T01:07:44.821Z,14.98
2023-12-31T01:10:11.162Z,14.96
2023-12-31T01:12:37.453Z,14.92
2023-12-31T01:15:03.714Z,14.90
2023-12-31T01:17:29.983Z,14.91
2023-12-31T01:19:56.314Z,14.92
2023-12-31T01:22:22.680Z,14.94
2023-12-31T01:24:49.003Z,14.93
2023-12-31T01:27:15.374Z,14.92
2023-12-31T01:29:41.623Z,14.90
2023-12-31T01:32:07.883Z,14.94
2023-12-31T01:34:34.162Z,14.91
2023-12-31T01:37:00.463Z,14.93
2023-12-31T01:39:26.721Z,14.94
2023-12-31T01:41:52.992Z,14.94
2023-12-31T01:44:19.277Z,14.92
2023-12-31T01:46:45.624Z,14.91
2023-12-31T01:49:12.032Z,14.90
2023-12-31T01:51:38.529Z,14.91
2023-12-31T01:54:04.776Z,14.90
2023-12-31T01:56:31.101Z,14.92
2023-12-31T01:58:57.347Z,14.92
2023-12-31T02:01:23.617Z,14.92
2023-12-31T02:03:49.908Z,14.90
2023-12-31T02:06:16.199Z,14.90
2023-12-31T02:08:42.478Z,14.94
2023-12-31T02:11:08.753Z,14.92
2023-12-31T02:13:35.048Z,14.93
2023-12-31T02:16:01.293Z,14.90
2023-12-31T02:18:27.601Z,14.90
2023-12-31T02:20:53.900Z,14.88
2023-12-31T02:23:20.183Z,14.87
2023-12-31T02:25:46.566Z,14.88
2023-12-31T02:28:13.339Z,14.84
2023-12-31T02:30:39.676Z,14.85
2023-12-31T02:33:06.391Z,14.82
2023-12-31T02:35:32.901Z,14.82
2023-12-31T02:37:59.155Z,14.82
2023-12-31T02:40:25.460Z,14.83
2023-12-31T02:42:51.764Z,14.80
2023-12-31T02:45:18.022Z,14.72
2023-12-31T02:47:44.341Z,14.74
2023-12-31T02:50:10.650Z,14.79
2023-12-31T02:52:36.964Z,14.81
2023-12-31T02:55:03.247Z,14.78
2023-12-31T02:57:29.543Z,14.77
2023-12-31T02:59:55.854Z,14.77
2023-12-31T03:02:22.110Z,14.73
2023-12-31T03:04:48.688Z,14.76
2023-12-31T03:07:15.053Z,14.79
2023-12-31T03:09:41.319Z,14.74
2023-12-31T03:12:07.599Z,14.73
2023-12-31T03:14:33.852Z,14.73
2023-12-31T03:17:00.117Z,14.72
2023-12-31T03:19:26.400Z,14.66
2023-12-31T03:21:52.665Z,14.71
2023-12-31T03:24:18.919Z,14.71
2023-12-31T03:26:45.180Z,14.67
2023-12-31T03:29:11.425Z,14.68
2023-12-31T03:31:37.749Z,14.65
2023-12-31T03:34:04.144Z,14.64
2023-12-31T03:36:30.447Z,14.64
2023-12-31T03:38:56.704Z,14.63
2023-12-31T03:41:22.970Z,14.61
2023-12-31T03:43:49.262Z,14.60
2023-12-31T03:46:15.599Z,14.63
2023-12-31T03:48:41.961Z,14.59
2023-12-31T03:51:08.242Z,14.64
2023-12-31T03:53:34.493Z,14.60
2023-12-31T03:56:00.786Z,14.58
2023-12-31T03:58:27.125Z,14.61
2023-12-31T04:00:53.446Z,14.58
2023-12-31T04:03:19.712Z,14.59
2023-12-31T04:05:45.993Z,14.56
2023-12-31T04:08:12.257Z,14.59
2023-12-31T04:10:38.562Z,14.60
2023-12-31T04:13:05.292Z,14.59
2023-12-31T04:15:31.732Z,14.62
2023-12-31T04:17:58.096Z,14.59
2023-12-31T04:20:24.448Z,14.56
2023-12-31T04:22:50.743Z,14.60
2023-12-31T04:25:17.080Z,14.60
2023-12-31T04:27:43.423Z,14.56
2023-12-31T04:30:09.690Z,14.56
2023-12-31T04:32:35.986Z,14.60
2023-12-31T04:35:02.283Z,14.63
2023-12-31T04:37:28.570Z,14.61
2023-12-31T04:39:54.848Z,14.65
2023-12-31T04:42:21.105Z,14.65
2023-12-31T04:44:47.382Z,14.60
2023-12-31T04:47:13.636Z,14.62
2023-12-31T04:49:39.947Z,14.63
2023-12-31T04:52:06.239Z,14.69
2023-12-31T04:54:32.532Z,14.69
2023-12-31T04:56:58.801Z,14.72
2023-12-31T04:59:25.050Z,14.75
2023-12-31T05:01:51.360Z,14.73
2023-12-31T05:04:17.752Z,14.75
2023-12-31T05:06:44.054Z,14.84
2023-12-31T05:09:10.325Z,14.83
2023-12-31T05:11:36.781Z,14.89
2023-12-31T05:14:03.062Z,14.96
2023-12-31T05:16:29.380Z,14.99
2023-12-31T05:18:55.758Z,15.05
2023-12-31T05:21:22.101Z,15.11
2023-12-31T05:23:48.364Z,15.10
2023-12-31T05:26:14.644Z,15.14
2023-12-31T05:28:40.944Z,15.13
2023-12-31T05:31:07.227Z,15.15
2023-12-31T05:33:33.550Z,15.19
2023-12-31T05:35:59.814Z,15.25
2023-12-31T05:38:26.055Z,15.24
2023-12-31T05:40:52.354Z,15.22
2023-12-31T05:43:18.636Z,15.19
2023-12-31T05:45:44.947Z,15.25
2023-12-31T05:48:11.398Z,15.24
2023-12-31T05:50:37.974Z,15.27
2023-12-31T05:53:04.448Z,15.26
2023-12-31T05:55:30.936Z,15.30
2023-12-31T05:57:57.271Z,15.33
2023-12-31T06:00:23.527Z,15.33
2023-12-31T06:02:49.782Z,15.35
2023-12-31T06:05:16.043Z,15.40
2023-12-31T06:07:42.340Z,15.36
2023-12-31T06:10:08.632Z,15.37
2023-12-31T06:12:34.889Z,15.46
2023-12-31T06:15:01.179Z,15.40
2023-12-31T06:17:27.443Z,15.46
2023-12-31T06:19:53.799Z,15.52
2023-12-31T06:22:20.251Z,15.41
2023-12-31T06:24:46.544Z,15.46
2023-12-31T06:27:12.828Z,15.43
2023-12-31T06:29:39.080Z,15.42
2023-12-31T06:32:05.362Z,15.49
2023-12-31T06:34:31.759Z,15.44
2023-12-31T06:36:58.018Z,15.52
2023-12-31T06:39:24.273Z,15.51
2023-12-31T06:41:50.523Z,15.56
2023-12-31T06:44:16.817Z,15.53
2023-12-31T06:46:43.145Z,15.56
2023-12-31T06:49:09.514Z,15.57
2023-12-31T06:51:35.782Z,15.59
2023-12-31T06:54:02.049Z,15.52
2023-12-31T06:56:28.311Z,15.55
2023-12-31T06:58:54.603Z,15.61
2023-12-31T07:01:21.064Z,15.64
2023-12-31T07:03:47.400Z,15.57
2023-12-31T07:06:13.641Z,15.57
2023-12-31T07:08:39.884Z,15.62
2023-12-31T07:11:06.128Z,15.66
2023-12-31T07:13:32.410Z,15.64
2023-12-31T07:15:58.672Z,15.64
2023-12-31T07:18:25.037Z,15.65
2023-12-31T07:20:51.331Z,15.58
2023-12-31T07:23:17.621Z,15.58
2023-12-31T07:25:43.881Z,15.67
2023-12-31T07:28:10.132Z,15.66
2023-12-31T07:30:36.449Z,15.65
2023-12-31T07:33:03.010Z,15.64
2023-12-31T07:35:29.451Z,15.65
2023-12-31T07:37:55.784Z,15.69
2023-12-31T07:40:22.141Z,15.70
2023-12-31T07:42:48.420Z,15.70
2023-12-31T07:45:14.719Z,15.64
2023-12-31T07:47:41.077Z,15.72
2023-12-31T07:50:07.401Z,15.74
2023-12-31T07:52:33.674Z,15.73
2023-12-31T07:54:59.962Z,15.70
2023-12-31T07:57:26.239Z,15.67
2023-12-31T07:59:52.489Z,15.66
2023-12-31T08:02:18.750Z,15.70
2023-12-31T08:04:45.053Z,15.67
2023-12-31T08:07:11.326Z,15.69
2023-12-31T08:09:37.571Z,15.77
2023-12-31T08:12:03.832Z,15.76
2023-12-31T08:14:30.092Z,15.75
2023-12-31T08:16:56.419Z,15.77
2023-12-31T08:19:22.715Z,15.76
2023-12-31T08:21:49.004Z,15.74
2023-12-31T08:24:15.247Z,15.77
2023-12-31T08:26:41.537Z,15.78
2023-12-31T08:29:07.816Z,15.78
2023-12-31T08:31:34.628Z,15.80
2023-12-31T08:34:01.626Z,15.82
2023-12-31T08:36:27.983Z,15.80
2023-12-31T08:38:54.251Z,15.79
2023-12-31T08:41:20.526Z,15.81
2023-12-31T08:43:46.803Z,15.79
2023-12-31T08:46:13.117Z,15.87
2023-12-31T08:48:39.467Z,15.86
2023-12-31T08:51:05.763Z,15.82
2023-12-31T08:53:32.031Z,15.81
2023-12-31T08:55:58.364Z,15.84
2023-12-31T08:58:24.742Z,15.88
2023-12-31T09:00:51.153Z,15.90
2023-12-31T09:03:17.457Z,15.84
2023-12-31T09:05:43.786Z,15.81
2023-12-31T09:08:10.062Z,15.87
2023-12-31T09:10:36.336Z,15.87
2023-12-31T09:13:02.829Z,15.86
2023-12-31T09:15:29.236Z,15.84
2023-12-31T09:17:55.564Z,15.81
2023-12-31T09:20:21.906Z,15.75
2023-12-31T09:22:49.987Z,15.77
2023-12-31T09:25:16.515Z,15.82
2023-12-31T09:27:42.809Z,15.79
2023-12-31T09:30:09.122Z,15.81
2023-12-31T09:32:35.479Z,15.76
2023-12-31T09:35:01.939Z,15.80
2023-12-31T09:37:28.301Z,15.87
2023-12-31T09:39:54.560Z,15.87
2023-12-31T09:42:20.831Z,15.88
2023-12-31T09:44:47.087Z,15.91
2023-12-31T09:47:13.514Z,15.91
2023-12-31T09:49:39.909Z,15.90
2023-12-31T09:52:06.211Z,15.98
2023-12-31T09:54:32.464Z,16.00
2023-12-31T09:56:58.720Z,16.01
2023-12-31T09:59:25.040Z,16.00
2023-12-31T10:01:51.416Z,16.01
2023-12-31T10:04:17.679Z,16.00
2023-12-31T10:06:43.948Z,16.05
2023-12-31T10:09:10.197Z,16.13
2023-12-31T10:11:36.463Z,16.08
2023-12-31T10:14:02.809Z,16.05
2023-12-31T10:16:29.108Z,16.09
2023-12-31T10:18:55.450Z,16.14
2023-12-31T10:21:21.815Z,16.13
2023-12-31T10:23:51.153Z,16.18
2023-12-31T10:26:17.627Z,16.16
2023-12-31T10:28:43.880Z,16.18
2023-12-31T10:31:10.142Z,16.18
2023-12-31T10:33:36.497Z,16.21
2023-12-31T10:36:02.855Z,16.21
2023-12-31T10:38:29.224Z,16.24
2023-12-31T10:40:55.584Z,16.23
2023-12-31T10:43:21.875Z,16.20
2023-12-31T10:45:48.171Z,16.23
2023-12-31T10:48:14.510Z,16.26
2023-12-31T10:50:40.843Z,16.24
2023-12-31T10:53:07.426Z,16.24
2023-12-31T10:55:33.905Z,16.25
2023-12-31T10:58:00.250Z,16.31
2023-12-31T11:00:26.512Z,16.31
2023-12-31T11:02:52.792Z,16.30
2023-12-31T11:05:19.110Z,16.28
2023-12-31T11:07:45.424Z,16.33
2023-12-31T11:10:11.749Z,16.39
2023-12-31T11:12:38.032Z,16.34
2023-12-31T11:15:04.293Z,16.33
2023-12-31T11:17:37.027Z,16.37
2023-12-31T11:20:05.784Z,16.27
2023-12-31T11:22:32.122Z,16.31
2023-12-31T11:24:58.456Z,16.39
2023-12-31T11:27:24.724Z,16.39
2023-12-31T11:29:50.998Z,16.31
2023-12-31T11:32:17.254Z,16.35
2023-12-31T11:34:43.564Z,16.35
2023-12-31T11:37:09.919Z,16.43
2023-12-31T11:39:36.172Z,16.34
2023-12-31T11:42:02.427Z,16.33
2023-12-31T11:44:28.678Z,16.44
2023-12-31T11:46:54.955Z,16.46
2023-12-31T11:49:21.211Z,16.53
2023-12-31T11:51:47.545Z,16.51
2023-12-31T11:54:13.796Z,16.55
2023-12-31T11:56:40.060Z,16.61
2023-12-31T11:59:06.391Z,16.60
2023-12-31T12:01:32.758Z,16.64
2023-12-31T12:03:59.085Z,16.61
2023-12-31T12:06:25.404Z,16.65
2023-12-31T12:08:51.750Z,16.66
2023-12-31T12:11:17.997Z,16.65
2023-12-31T12:13:44.377Z,16.69
2023-12-31T12:16:10.632Z,16.67
2023-12-31T12:18:37.001Z,16.68
2023-12-31T12:21:03.305Z,16.67
2023-12-31T12:23:29.558Z,16.62
2023-12-31T12:25:55.874Z,16.67
2023-12-31T12:28:22.226Z,16.70
2023-12-31T12:30:48.537Z,16.66
2023-12-31T12:33:15.684Z,16.70
2023-12-31T12:35:42.441Z,16.73
2023-12-31T12:38:08.724Z,16.69
2023-12-31T12:40:34.996Z,16.69
2023-12-31T12:43:01.496Z,16.73
2023-12-31T12:45:27.898Z,16.76
2023-12-31T12:47:54.225Z,16.66
2023-12-31T12:50:20.504Z,16.67
2023-12-31T12:52:46.788Z,16.66
2023-12-31T12:55:13.072Z,16.70
2023-12-31T12:57:39.343Z,16.69
2023-12-31T13:00:07.897Z,16.69
2023-12-31T13:02:34.710Z,16.66
2023-12-31T13:05:00.966Z,16.67
2023-12-31T13:07:27.254Z,16.72
2023-12-31T13:09:53.503Z,16.75
2023-12-31T13:12:19.756Z,16.77
2023-12-31T13:14:46.005Z,16.75
2023-12-31T13:17:12.406Z,16.80
2023-12-31T13:19:38.718Z,16.78
2023-12-31T13:22:06.725Z,16.77
2023-12-31T13:24:33.718Z,16.78
2023-12-31T13:27:00.039Z,16.84
2023-12-31T13:29:26.297Z,16.85
2023-12-31T13:31:52.680Z,16.85
2023-12-31T13:34:19.069Z,16.90
2023-12-31T13:36:45.384Z,16.88
2023-12-31T13:39:11.839Z,16.95
2023-12-31T13:41:38.105Z,16.99
2023-12-31T13:44:04.497Z,16.93
2023-12-31T13:46:30.864Z,17.00
2023-12-31T13:48:57.316Z,16.94
2023-12-31T13:51:23.646Z,17.02
2023-12-31T13:53:49.933Z,17.08
2023-12-31T13:56:16.170Z,17.05
2023-12-31T13:58:42.447Z,17.15
2023-12-31T14:01:08.827Z,17.23
2023-12-31T14:03:35.257Z,17.34
2023-12-31T14:06:01.727Z,17.49
2023-12-31T14:08:28.066Z,17.56
2023-12-31T14:10:54.377Z,17.57
2023-12-31T14:13:20.683Z,17.64
2023-12-31T14:15:46.973Z,17.58
2023-12-31T14:18:13.397Z,17.59
2023-12-31T14:20:39.789Z,17.55
2023-12-31T14:23:06.449Z,17.48
2023-12-31T14:25:32.950Z,17.53
2023-12-31T14:27:59.238Z,17.44
2023-12-31T14:30:25.563Z,17.41
2023-12-31T14:32:51.913Z,17.37
2023-12-31T14:35:18.258Z,17.43
2023-12-31T14:37:44.678Z,17.44
2023-12-31T14:40:10.957Z,17.42
2023-12-31T14:42:37.252Z,17.31
2023-12-31T14:45:03.531Z,17.33
2023-12-31T14:47:29.874Z,17.35
2023-12-31T14:49:56.261Z,17.31
2023-12-31T14:52:22.612Z,17.35
2023-12-31T14:54:48.879Z,17.25
2023-12-31T14:57:15.136Z,17.35
2023-12-31T14:59:41.406Z,17.28
2023-12-31T15:02:07.746Z,17.36
2023-12-31T15:04:34.132Z,17.35
2023-12-31T15:07:00.498Z,17.33
2023-12-31T15:09:26.782Z,17.34
2023-12-31T15:11:53.040Z,17.29
2023-12-31T15:14:19.536Z,17.32
2023-12-31T15:16:45.965Z,17.31
2023-12-31T15:19:12.407Z,17.24
2023-12-31T15:21:38.767Z,17.27
2023-12-31T15:24:05.065Z,17.22
2023-12-31T15:26:31.318Z,17.19
2023-12-31T15:28:57.678Z,17.20
2023-12-31T15:31:24.029Z,17.20
2023-12-31T15:33:50.438Z,17.12
2023-12-31T15:36:16.755Z,17.11
2023-12-31T15:38:43.062Z,17.10
2023-12-31T15:41:09.371Z,17.10
2023-12-31T15:43:35.715Z,17.11
2023-12-31T15:46:01.986Z,17.09
2023-12-31T15:48:28.289Z,17.08
2023-12-31T15:50:54.621Z,17.10
2023-12-31T15:53:20.881Z,17.08
2023-12-31T15:55:47.139Z,17.09
2023-12-31T15:58:13.418Z,17.07
2023-12-31T16:00:39.755Z,17.07
2023-12-31T16:03:06.075Z,17.10
2023-12-31T16:05:32.380Z,17.10
2023-12-31T16:07:58.711Z,17.13
2023-12-31T16:10:24.997Z,17.10
2023-12-31T16:12:51.257Z,17.08
2023-12-31T16:15:17.553Z,17.10
2023-12-31T16:17:43.895Z,17.11
2023-12-31T16:20:10.307Z,17.12
2023-12-31T16:22:36.665Z,17.13
2023-12-31T16:25:02.944Z,16.66
2023-12-31T16:27:29.216Z,17.02
2023-12-31T16:29:55.488Z,17.03
2023-12-31T16:32:21.743Z,17.05
2023-12-31T16:34:48.051Z,17.06
2023-12-31T16:37:14.310Z,16.96
2023-12-31T16:39:40.545Z,17.01
2023-12-31T16:42:06.834Z,16.99
2023-12-31T16:44:33.093Z,17.01
2023-12-31T16:46:59.350Z,16.96
2023-12-31T16:49:25.661Z,16.96
2023-12-31T16:51:51.961Z,16.94
2023-12-31T16:54:18.199Z,16.91
2023-12-31T16:56:44.449Z,16.87
2023-12-31T16:59:10.768Z,16.91
2023-12-31T17:01:37.101Z,16.96
2023-12-31T17:04:03.445Z,17.03
2023-12-31T17:06:29.695Z,17.06
2023-12-31T17:08:55.933Z,17.08
2023-12-31T17:11:22.220Z,17.04
2023-12-31T17:13:48.602Z,17.07
2023-12-31T17:16:14.876Z,17.05
2023-12-31T17:18:41.206Z,17.00
2023-12-31T17:21:07.510Z,16.91
2023-12-31T17:23:33.762Z,16.96
2023-12-31T17:26:00.078Z,16.92
2023-12-31T17:28:26.454Z,16.53
2023-12-31T17:30:53.216Z,16.93
2023-12-31T17:33:19.557Z,16.95
2023-12-31T17:35:45.860Z,16.81
2023-12-31T17:38:12.202Z,16.84
2023-12-31T17:40:38.570Z,16.85
2023-12-31T17:43:04.887Z,16.83
2023-12-31T17:45:31.236Z,16.81
2023-12-31T17:47:57.657Z,16.78
2023-12-31T17:50:24.376Z,16.77
2023-12-31T17:52:50.774Z,16.72
2023-12-31T17:55:17.056Z,16.66
2023-12-31T17:57:43.325Z,16.69
2023-12-31T18:00:09.576Z,16.66
2023-12-31T18:02:35.822Z,16.63
2023-12-31T18:05:02.188Z,16.60
2023-12-31T18:07:28.492Z,16.57
2023-12-31T18:09:54.788Z,16.51
2023-12-31T18:12:21.053Z,16.50
2023-12-31T18:14:47.311Z,16.48
2023-12-31T18:17:13.589Z,16.50
2023-12-31T18:19:39.965Z,16.44
2023-12-31T18:22:06.286Z,16.43
2023-12-31T18:24:32.563Z,16.38
2023-12-31T18:26:58.810Z,16.33
2023-12-31T18:29:25.082Z,16.35
2023-12-31T18:31:51.473Z,16.33
2023-12-31T18:34:17.847Z,16.32
2023-12-31T18:36:44.099Z,16.30
2023-12-31T18:39:10.347Z,16.27
2023-12-31T18:41:36.643Z,16.29
2023-12-31T18:44:02.940Z,16.22
2023-12-31T18:46:29.262Z,16.21
2023-12-31T18:48:55.567Z,16.20
2023-12-31T18:51:21.885Z,16.19
2023-12-31T18:53:48.288Z,16.16
2023-12-31T18:56:14.634Z,16.17
2023-12-31T18:58:41.055Z,16.16
2023-12-31T19:01:07.451Z,16.15
2023-12-31T19:03:33.929Z,16.13
2023-12-31T19:06:00.255Z,16.09
2023-12-31T19:08:26.539Z,16.08
2023-12-31T19:10:52.846Z,16.06
2023-12-31T19:13:19.126Z,16.07
2023-12-31T19:15:45.391Z,16.06
2023-12-31T19:18:11.833Z,16.03
2023-12-31T19:20:38.160Z,16.05
2023-12-31T19:23:04.534Z,16.01
2023-12-31T19:25:30.899Z,15.99
2023-12-31T19:27:57.188Z,15.99
2023-12-31T19:30:23.544Z,15.98
2023-12-31T19:32:49.838Z,15.94
2023-12-31T19:35:16.114Z,15.93
2023-12-31T19:37:42.445Z,15.96
2023-12-31T19:40:08.697Z,15.94
2023-12-31T19:42:34.941Z,15.93
2023-12-31T19:45:01.227Z,15.91
2023-12-31T19:47:27.539Z,15.91
2023-12-31T19:49:58.883Z,15.87
2023-12-31T19:52:25.981Z,15.87
2023-12-31T19:54:52.258Z,15.85
2023-12-31T19:57:18.525Z,15.84
2023-12-31T19:59:44.776Z,15.85
2023-12-31T20:02:11.065Z,15.83
2023-12-31T20:04:37.352Z,15.79
2023-12-31T20:07:03.618Z,15.78
2023-12-31T20:09:29.915Z,15.78
2023-12-31T20:11:56.169Z,15.78
2023-12-31T20:14:22.410Z,15.75
2023-12-31T20:16:48.703Z,15.75
2023-12-31T20:19:15.058Z,15.74
2023-12-31T20:21:41.383Z,15.75
2023-12-31T20:24:07.620Z,15.71
2023-12-31T20:26:33.882Z,15.71
2023-12-31T20:29:00.323Z,15.68
2023-12-31T20:31:26.713Z,15.65
2023-12-31T20:33:53.041Z,15.62
2023-12-31T20:36:19.376Z,15.62
2023-12-31T20:38:45.622Z,15.61
2023-12-31T20:41:11.938Z,15.61
2023-12-31T20:43:38.287Z,15.63
2023-12-31T20:46:04.570Z,15.63
2023-12-31T20:48:30.878Z,15.59
2023-12-31T20:50:57.176Z,15.63
2023-12-31T20:53:23.540Z,15.61
2023-12-31T20:55:49.911Z,15.60
2023-12-31T20:58:16.252Z,15.57
2023-12-31T21:00:42.561Z,15.55
2023-12-31T21:03:09.060Z,15.53
2023-12-31T21:05:35.488Z,15.52
2023-12-31T21:08:01.898Z,15.51
2023-12-31T21:10:28.258Z,15.53
2023-12-31T21:12:54.538Z,15.50
2023-12-31T21:15:20.791Z,15.51
2023-12-31T21:17:47.088Z,15.43
2023-12-31T21:20:13.364Z,15.39
2023-12-31T21:22:39.671Z,15.45
2023-12-31T21:25:05.951Z,15.44
2023-12-31T21:27:32.197Z,15.39
2023-12-31T21:29:58.447Z,15.39
2023-12-31T21:32:24.939Z,15.42
2023-12-31T21:34:51.338Z,15.34
2023-12-31T21:37:17.594Z,15.37
2023-12-31T21:39:43.840Z,15.35
2023-12-31T21:42:10.194Z,15.31
2023-12-31T21:44:36.434Z,15.36
2023-12-31T21:47:02.766Z,15.33
2023-12-31T21:49:29.154Z,15.34
2023-12-31T21:51:55.464Z,15.30
2023-12-31T21:54:21.728Z,15.36
2023-12-31T21:56:58.185Z,15.29
2023-12-31T21:59:28.931Z,15.28
2023-12-31T22:01:55.396Z,15.32
2023-12-31T22:04:21.684Z,15.27
2023-12-31T22:06:47.993Z,15.26
2023-12-31T22:09:14.242Z,15.27
2023-12-31T22:11:42.487Z,15.27
2023-12-31T22:14:09.833Z,15.27
2023-12-31T22:16:36.233Z,15.22
2023-12-31T22:19:02.677Z,15.23
2023-12-31T22:21:28.995Z,15.22
2023-12-31T22:23:55.248Z,15.22
2023-12-31T22:26:21.503Z,15.25
2023-12-31T22:28:47.791Z,15.20
2023-12-31T22:31:14.101Z,15.16
2023-12-31T22:33:40.460Z,15.20
2023-12-31T22:36:06.808Z,15.20
2023-12-31T22:38:33.054Z,15.19
2023-12-31T22:40:59.374Z,15.18
2023-12-31T22:43:25.634Z,15.16
2023-12-31T22:45:51.890Z,15.17
2023-12-31T22:48:18.254Z,15.16
2023-12-31T22:50:44.581Z,15.16
2023-12-31T22:53:10.892Z,15.14
2023-12-31T22:55:37.226Z,15.09
2023-12-31T22:58:03.888Z,15.11
2023-12-31T23:00:30.444Z,15.07
2023-12-31T23:02:56.781Z,15.04
2023-12-31T23:05:23.110Z,15.05
2023-12-31T23:07:49.405Z,15.02
2023-12-31T23:10:15.716Z,15.05
2023-12-31T23:12:41.961Z,15.08
2023-12-31T23:15:08.220Z,15.08
2023-12-31T23:17:34.537Z,15.07
2023-12-31T23:20:00.917Z,15.12
2023-12-31T23:22:27.255Z,15.12
2023-12-31T23:24:53.501Z,15.17
2023-12-31T23:27:19.760Z,15.19
2023-12-31T23:29:46.024Z,15.19
2023-12-31T23:32:12.476Z,15.18
2023-12-31T23:34:38.858Z,15.21
2023-12-31T23:37:06.787Z,15.17
2023-12-31T23:39:34.806Z,15.20
2023-12-31T23:42:01.078Z,15.26
2023-12-31T23:44:29.476Z,15.26
2023-12-31T23:46:56.720Z,15.27
2023-12-31T23:49:22.996Z,15.24
2023-12-31T23:51:49.270Z,15.21
2023-12-31T23:54:15.523Z,15.25
2023-12-31T23:56:41.838Z,15.28
2023-12-31T23:59:08.230Z,15.27
